createdAt,value
2018-09-30T00:00:16.765Z,35.31
2018-09-30T00:01:15.998Z,35.41
2018-09-30T00:02:15.960Z,34.61
2018-09-30T00:03:15.994Z,34.41
2018-09-30T00:04:15.957Z,35.31
2018-09-30T00:05:16.767Z,35.31
2018-09-30T00:06:15.914Z,34.41
2018-09-30T00:07:16.765Z,35.71
2018-09-30T00:08:16.275Z,35.51
2018-09-30T00:09:16.765Z,35.51
2018-09-30T00:10:16.763Z,35.41
2018-09-30T00:11:15.865Z,35.51
2018-09-30T00:12:15.855Z,35.41
2018-09-30T00:13:15.863Z,35.51
2018-09-30T00:14:15.840Z,35.51
2018-09-30T00:15:16.764Z,34.31
2018-09-30T00:16:16.766Z,34.61
2018-09-30T00:17:15.803Z,34.71
2018-09-30T00:18:15.811Z,34.51
2018-09-30T00:19:16.765Z,34.61
2018-09-30T00:20:16.768Z,34.41
2018-09-30T00:21:15.758Z,34.41
2018-09-30T00:22:15.747Z,35.41
2018-09-30T00:23:15.910Z,35.31
2018-09-30T00:24:15.730Z,35.11
2018-09-30T00:25:15.722Z,35.41
2018-09-30T00:26:16.271Z,34.41
2018-09-30T00:27:15.694Z,34.61
2018-09-30T00:28:15.712Z,35.41
2018-09-30T00:29:15.670Z,34.61
2018-09-30T00:30:15.665Z,34.71
2018-09-30T00:31:15.647Z,35.11
2018-09-30T00:32:15.638Z,34.91
2018-09-30T00:33:15.783Z,35.51
2018-09-30T00:34:15.616Z,34.81
2018-09-30T00:35:15.607Z,34.91
2018-09-30T00:36:16.382Z,34.71
2018-09-30T00:37:15.588Z,35.21
2018-09-30T00:38:15.601Z,35.01
2018-09-30T00:39:16.267Z,34.81
2018-09-30T00:40:16.264Z,35.31
2018-09-30T00:41:16.310Z,34.61
2018-09-30T00:42:16.268Z,35.01
2018-09-30T00:43:15.787Z,34.91
2018-09-30T00:44:15.511Z,34.41
2018-09-30T00:45:15.498Z,34.61
2018-09-30T00:46:16.425Z,34.61
2018-09-30T00:47:15.480Z,35.21
2018-09-30T00:48:15.781Z,34.91
2018-09-30T00:49:15.456Z,35.61
2018-09-30T00:50:15.446Z,35.31
2018-09-30T00:51:15.438Z,34.31
2018-09-30T00:52:16.264Z,35.41
2018-09-30T00:53:15.781Z,35.21
2018-09-30T00:54:16.267Z,35.31
2018-09-30T00:55:15.390Z,34.71
2018-09-30T00:56:15.386Z,35.23
2018-09-30T00:57:15.370Z,35.53
2018-09-30T00:58:15.788Z,35.41
2018-09-30T00:59:15.361Z,34.81
2018-09-30T01:00:15.337Z,35.91
2018-09-30T01:01:16.284Z,35.31
2018-09-30T01:02:16.272Z,34.31
2018-09-30T01:03:15.438Z,34.23
2018-09-30T01:04:15.298Z,35.31
2018-09-30T01:05:16.269Z,35.11
2018-09-30T01:06:15.272Z,35.31
2018-09-30T01:07:15.272Z,34.93
2018-09-30T01:08:15.271Z,35.21
2018-09-30T01:09:15.246Z,35.31
2018-09-30T01:10:15.242Z,35.11
2018-09-30T01:11:15.219Z,35.41
2018-09-30T01:12:15.214Z,35.51
2018-09-30T01:13:15.214Z,34.41
2018-09-30T01:14:15.188Z,34.41
2018-09-30T01:15:15.175Z,35.42
2018-09-30T01:16:15.164Z,35.21
2018-09-30T01:17:15.163Z,35.31
2018-09-30T01:18:15.188Z,35.41
2018-09-30T01:19:15.131Z,34.41
2018-09-30T01:20:15.118Z,35.31
2018-09-30T01:21:15.107Z,35.33
2018-09-30T01:22:15.106Z,35.41
2018-09-30T01:23:15.285Z,35.31
2018-09-30T01:24:15.076Z,35.01
2018-09-30T01:25:15.076Z,35.41
2018-09-30T01:26:15.054Z,35.01
2018-09-30T01:27:15.769Z,35.31
2018-09-30T01:28:15.286Z,35.01
2018-09-30T01:29:15.031Z,35.53
2018-09-30T01:30:15.780Z,35.51
2018-09-30T01:31:15.776Z,34.81
2018-09-30T01:32:15.775Z,35.13
2018-09-30T01:33:15.300Z,35.42
2018-09-30T01:34:15.768Z,35.11
2018-09-30T01:35:14.957Z,35.23
2018-09-30T01:36:14.946Z,35.42
2018-09-30T01:37:14.935Z,35.33
2018-09-30T01:38:15.293Z,35.21
2018-09-30T01:39:15.772Z,35.21
2018-09-30T01:40:15.767Z,35.33
2018-09-30T01:41:14.899Z,34.43
2018-09-30T01:42:15.777Z,34.93
2018-09-30T01:43:14.898Z,35.03
2018-09-30T01:44:14.866Z,35.13
2018-09-30T01:45:15.766Z,35.11
2018-09-30T01:46:14.836Z,35.33
2018-09-30T01:47:15.776Z,35.31
2018-09-30T01:48:14.841Z,35.23
2018-09-30T01:49:14.806Z,35.23
2018-09-30T01:50:14.793Z,34.93
2018-09-30T01:51:14.783Z,35.41
2018-09-30T01:52:14.779Z,35.03
2018-09-30T01:53:14.786Z,35.13
2018-09-30T01:54:15.283Z,35.13
2018-09-30T01:55:14.738Z,35.33
2018-09-30T01:56:15.269Z,34.93
2018-09-30T01:57:14.724Z,35.13
2018-09-30T01:58:14.730Z,34.93
2018-09-30T01:59:14.697Z,35.13
2018-09-30T02:00:15.272Z,35.13
2018-09-30T02:01:14.675Z,35.13
2018-09-30T02:02:14.697Z,35.42
2018-09-30T02:03:14.680Z,35.03
2018-09-30T02:04:15.271Z,34.73
2018-09-30T02:05:15.271Z,35.13
2018-09-30T02:06:14.623Z,35.13
2018-09-30T02:07:14.619Z,35.33
2018-09-30T02:08:14.638Z,35.13
2018-09-30T02:09:14.611Z,35.13
2018-09-30T02:10:14.576Z,35.33
2018-09-30T02:11:14.566Z,35.13
2018-09-30T02:12:15.270Z,35.03
2018-09-30T02:13:14.562Z,34.83
2018-09-30T02:14:14.572Z,35.13
2018-09-30T02:15:14.524Z,35.13
2018-09-30T02:16:14.513Z,35.23
2018-09-30T02:17:14.502Z,35.33
2018-09-30T02:18:15.278Z,35.23
2018-09-30T02:19:14.796Z,34.93
2018-09-30T02:20:15.274Z,35.13
2018-09-30T02:21:14.461Z,34.73
2018-09-30T02:22:14.448Z,34.53
2018-09-30T02:23:15.276Z,34.43
2018-09-30T02:24:14.785Z,34.73
2018-09-30T02:25:15.279Z,34.53
2018-09-30T02:26:14.406Z,34.53
2018-09-30T02:27:14.393Z,34.43
2018-09-30T02:28:14.385Z,34.63
2018-09-30T02:29:14.401Z,34.53
2018-09-30T02:30:15.271Z,34.43
2018-09-30T02:31:14.350Z,34.53
2018-09-30T02:32:14.339Z,34.33
2018-09-30T02:33:14.372Z,35.03
2018-09-30T02:34:14.785Z,35.03
2018-09-30T02:35:15.273Z,34.53
2018-09-30T02:36:15.270Z,33.83
2018-09-30T02:37:14.290Z,33.63
2018-09-30T02:38:14.299Z,33.83
2018-09-30T02:39:14.292Z,34.93
2018-09-30T02:40:14.256Z,33.83
2018-09-30T02:41:14.245Z,33.63
2018-09-30T02:42:14.233Z,33.83
2018-09-30T02:43:14.782Z,33.63
2018-09-30T02:44:14.246Z,33.83
2018-09-30T02:45:14.204Z,33.93
2018-09-30T02:46:14.191Z,33.83
2018-09-30T02:47:14.772Z,33.63
2018-09-30T02:48:14.191Z,33.83
2018-09-30T02:49:14.294Z,33.83
2018-09-30T02:50:14.802Z,33.63
2018-09-30T02:51:14.773Z,34.03
2018-09-30T02:52:14.792Z,33.83
2018-09-30T02:53:14.796Z,34.14
2018-09-30T02:54:14.273Z,33.83
2018-09-30T02:55:14.105Z,34.03
2018-09-30T02:56:14.082Z,33.83
2018-09-30T02:57:14.781Z,34.53
2018-09-30T02:58:14.811Z,33.63
2018-09-30T02:59:14.076Z,33.93
2018-09-30T03:00:14.777Z,33.83
2018-09-30T03:01:14.031Z,33.93
2018-09-30T03:02:14.770Z,33.65
2018-09-30T03:03:14.791Z,33.84
2018-09-30T03:04:14.291Z,33.53
2018-09-30T03:05:13.989Z,33.83
2018-09-30T03:06:14.773Z,34.93
2018-09-30T03:07:13.971Z,33.63
2018-09-30T03:08:13.951Z,33.75
2018-09-30T03:09:13.974Z,34.05
2018-09-30T03:10:13.941Z,34.14
2018-09-30T03:11:13.929Z,34.25
2018-09-30T03:12:13.916Z,34.14
2018-09-30T03:13:13.901Z,33.84
2018-09-30T03:14:13.978Z,34.05
2018-09-30T03:15:14.776Z,34.03
2018-09-30T03:16:14.779Z,34.14
2018-09-30T03:17:14.772Z,33.65
2018-09-30T03:18:14.775Z,33.84
2018-09-30T03:19:14.305Z,33.75
2018-09-30T03:20:13.822Z,34.14
2018-09-30T03:21:14.774Z,34.05
2018-09-30T03:22:13.806Z,34.23
2018-09-30T03:23:13.800Z,33.65
2018-09-30T03:24:13.808Z,34.14
2018-09-30T03:25:13.780Z,34.03
2018-09-30T03:26:13.756Z,33.75
2018-09-30T03:27:13.748Z,33.65
2018-09-30T03:28:14.283Z,33.84
2018-09-30T03:29:13.800Z,34.13
2018-09-30T03:30:13.718Z,34.14
2018-09-30T03:31:13.707Z,33.65
2018-09-30T03:32:14.276Z,33.84
2018-09-30T03:33:13.684Z,34.03
2018-09-30T03:34:13.788Z,33.83
2018-09-30T03:35:13.664Z,33.95
2018-09-30T03:36:14.274Z,33.84
2018-09-30T03:37:13.649Z,33.54
2018-09-30T03:38:13.641Z,33.84
2018-09-30T03:39:13.787Z,33.84
2018-09-30T03:40:14.274Z,33.83
2018-09-30T03:41:13.596Z,34.44
2018-09-30T03:42:13.589Z,34.44
2018-09-30T03:43:13.576Z,33.75
2018-09-30T03:44:13.583Z,33.84
2018-09-30T03:45:14.285Z,33.84
2018-09-30T03:46:13.540Z,34.93
2018-09-30T03:47:13.532Z,33.84
2018-09-30T03:48:13.525Z,33.84
2018-09-30T03:49:13.790Z,33.95
2018-09-30T03:50:13.507Z,35.05
2018-09-30T03:51:13.495Z,33.95
2018-09-30T03:52:13.486Z,33.75
2018-09-30T03:53:13.467Z,33.84
2018-09-30T03:54:13.486Z,33.93
2018-09-30T03:55:13.445Z,33.84
2018-09-30T03:56:13.444Z,33.75
2018-09-30T03:57:14.274Z,33.84
2018-09-30T03:58:13.413Z,33.84
2018-09-30T03:59:13.457Z,33.84
2018-09-30T04:00:13.393Z,33.75
2018-09-30T04:01:13.382Z,33.84
2018-09-30T04:02:14.282Z,33.84
2018-09-30T04:03:14.277Z,33.84
2018-09-30T04:04:13.373Z,33.84
2018-09-30T04:05:13.338Z,33.65
2018-09-30T04:06:13.326Z,33.84
2018-09-30T04:07:14.275Z,33.84
2018-09-30T04:08:13.310Z,33.84
2018-09-30T04:09:13.787Z,33.75
2018-09-30T04:10:13.390Z,33.75
2018-09-30T04:11:13.274Z,33.84
2018-09-30T04:12:13.776Z,33.75
2018-09-30T04:13:13.773Z,33.84
2018-09-30T04:14:13.293Z,33.84
2018-09-30T04:15:13.241Z,35.05
2018-09-30T04:16:13.266Z,33.84
2018-09-30T04:17:13.234Z,33.84
2018-09-30T04:18:13.202Z,33.65
2018-09-30T04:19:13.781Z,33.65
2018-09-30T04:20:13.202Z,33.75
2018-09-30T04:21:13.167Z,33.75
2018-09-30T04:22:13.156Z,34.44
2018-09-30T04:23:13.142Z,35.05
2018-09-30T04:24:13.777Z,33.75
2018-09-30T04:25:13.302Z,34.44
2018-09-30T04:26:13.115Z,34.55
2018-09-30T04:27:13.105Z,34.44
2018-09-30T04:28:13.781Z,34.05
2018-09-30T04:29:13.080Z,34.55
2018-09-30T04:30:13.295Z,34.55
2018-09-30T04:31:13.773Z,34.44
2018-09-30T04:32:13.779Z,33.95
2018-09-30T04:33:13.115Z,34.44
2018-09-30T04:34:13.026Z,33.65
2018-09-30T04:35:13.035Z,34.44
2018-09-30T04:36:13.006Z,34.44
2018-09-30T04:37:13.778Z,34.44
2018-09-30T04:38:13.783Z,34.64
2018-09-30T04:39:12.980Z,34.75
2018-09-30T04:40:12.996Z,34.44
2018-09-30T04:41:12.956Z,34.64
2018-09-30T04:42:12.949Z,34.55
2018-09-30T04:43:12.946Z,34.55
2018-09-30T04:44:13.778Z,34.55
2018-09-30T04:45:12.929Z,34.55
2018-09-30T04:46:12.900Z,34.55
2018-09-30T04:47:12.889Z,34.34
2018-09-30T04:48:13.776Z,34.64
2018-09-30T04:49:12.868Z,34.44
2018-09-30T04:50:12.874Z,34.44
2018-09-30T04:51:13.785Z,34.44
2018-09-30T04:52:12.837Z,34.55
2018-09-30T04:53:12.826Z,34.75
2018-09-30T04:54:13.778Z,34.44
2018-09-30T04:55:12.823Z,34.55
2018-09-30T04:56:13.778Z,34.55
2018-09-30T04:57:12.797Z,34.44
2018-09-30T04:58:12.769Z,34.55
2018-09-30T04:59:12.772Z,34.55
2018-09-30T05:00:12.795Z,34.56
2018-09-30T05:01:13.280Z,34.64
2018-09-30T05:02:12.727Z,34.44
2018-09-30T05:03:12.713Z,34.55
2018-09-30T05:04:13.277Z,34.55
2018-09-30T05:05:12.793Z,34.44
2018-09-30T05:06:12.685Z,34.64
2018-09-30T05:07:13.282Z,34.55
2018-09-30T05:08:12.658Z,34.55
2018-09-30T05:09:12.649Z,34.55
2018-09-30T05:10:12.655Z,34.34
2018-09-30T05:11:12.628Z,34.55
2018-09-30T05:12:12.615Z,34.44
2018-09-30T05:13:13.281Z,34.64
2018-09-30T05:14:12.596Z,34.44
2018-09-30T05:15:12.667Z,34.55
2018-09-30T05:16:12.647Z,34.55
2018-09-30T05:17:13.281Z,33.84
2018-09-30T05:18:12.553Z,34.44
2018-09-30T05:19:12.543Z,34.46
2018-09-30T05:20:12.653Z,34.64
2018-09-30T05:21:12.537Z,34.44
2018-09-30T05:22:12.507Z,34.44
2018-09-30T05:23:12.496Z,34.44
2018-09-30T05:24:12.484Z,35.05
2018-09-30T05:25:12.496Z,34.55
2018-09-30T05:26:12.473Z,34.44
2018-09-30T05:27:12.457Z,34.64
2018-09-30T05:28:13.280Z,34.55
2018-09-30T05:29:13.280Z,34.55
2018-09-30T05:30:12.810Z,34.64
2018-09-30T05:31:12.569Z,34.75
2018-09-30T05:32:13.284Z,34.44
2018-09-30T05:33:12.390Z,34.44
2018-09-30T05:34:13.280Z,34.55
2018-09-30T05:35:12.790Z,34.64
2018-09-30T05:36:12.415Z,34.55
2018-09-30T05:37:13.333Z,34.55
2018-09-30T05:38:13.280Z,34.55
2018-09-30T05:39:12.331Z,34.66
2018-09-30T05:40:12.794Z,34.56
2018-09-30T05:41:12.310Z,34.64
2018-09-30T05:42:12.294Z,34.44
2018-09-30T05:43:12.282Z,34.55
2018-09-30T05:44:12.272Z,34.64
2018-09-30T05:45:12.275Z,34.55
2018-09-30T05:46:12.254Z,34.64
2018-09-30T05:47:12.783Z,34.44
2018-09-30T05:48:12.235Z,34.55
2018-09-30T05:49:12.299Z,34.56
2018-09-30T05:50:12.226Z,34.55
2018-09-30T05:51:12.789Z,34.34
2018-09-30T05:52:12.784Z,34.55
2018-09-30T05:53:12.175Z,34.55
2018-09-30T05:54:12.169Z,34.66
2018-09-30T05:55:12.293Z,34.44
2018-09-30T05:56:12.153Z,34.55
2018-09-30T05:57:12.779Z,34.75
2018-09-30T05:58:12.124Z,34.55
2018-09-30T05:59:12.111Z,34.66
2018-09-30T06:00:12.125Z,34.56
2018-09-30T06:01:12.142Z,34.64
2018-09-30T06:02:12.076Z,34.55
2018-09-30T06:03:12.787Z,34.44
2018-09-30T06:04:12.057Z,34.75
2018-09-30T06:05:12.059Z,34.55
2018-09-30T06:06:12.040Z,34.66
2018-09-30T06:07:12.022Z,34.55
2018-09-30T06:08:12.784Z,34.55
2018-09-30T06:09:12.162Z,34.56
2018-09-30T06:10:12.292Z,34.55
2018-09-30T06:11:11.978Z,34.75
2018-09-30T06:12:11.968Z,34.75
2018-09-30T06:13:11.981Z,34.55
2018-09-30T06:14:12.932Z,34.94
2018-09-30T06:15:11.997Z,34.55
2018-09-30T06:16:11.927Z,34.55
2018-09-30T06:17:12.782Z,34.66
2018-09-30T06:18:12.781Z,34.64
2018-09-30T06:19:11.894Z,34.56
2018-09-30T06:20:11.915Z,34.64
2018-09-30T06:21:11.879Z,34.56
2018-09-30T06:22:12.784Z,35.16
2018-09-30T06:23:12.781Z,34.64
2018-09-30T06:24:11.950Z,34.64
2018-09-30T06:25:12.789Z,34.66
2018-09-30T06:26:12.295Z,34.96
2018-09-30T06:27:12.785Z,34.75
2018-09-30T06:28:11.797Z,35.14
2018-09-30T06:29:11.790Z,35.14
2018-09-30T06:30:11.777Z,34.94
2018-09-30T06:31:11.800Z,35.06
2018-09-30T06:32:12.370Z,35.06
2018-09-30T06:33:12.282Z,34.64
2018-09-30T06:34:11.732Z,34.75
2018-09-30T06:35:12.281Z,34.76
2018-09-30T06:36:11.814Z,34.36
2018-09-30T06:37:12.417Z,34.64
2018-09-30T06:38:11.687Z,34.66
2018-09-30T06:39:11.680Z,34.56
2018-09-30T06:40:11.668Z,34.76
2018-09-30T06:41:11.672Z,34.75
2018-09-30T06:42:12.322Z,34.75
2018-09-30T06:43:11.635Z,34.96
2018-09-30T06:44:12.286Z,34.56
2018-09-30T06:45:11.778Z,34.55
2018-09-30T06:46:11.621Z,34.56
2018-09-30T06:47:11.601Z,34.44
2018-09-30T06:48:11.584Z,34.55
2018-09-30T06:49:11.567Z,34.55
2018-09-30T06:50:11.558Z,34.75
2018-09-30T06:51:11.570Z,34.55
2018-09-30T06:52:11.540Z,34.75
2018-09-30T06:53:11.527Z,34.25
2018-09-30T06:54:12.282Z,34.46
2018-09-30T06:55:11.525Z,34.55
2018-09-30T06:56:11.514Z,34.75
2018-09-30T06:57:11.485Z,34.75
2018-09-30T06:58:12.299Z,34.75
2018-09-30T06:59:11.465Z,34.34
2018-09-30T07:00:11.456Z,34.44
2018-09-30T07:01:11.819Z,34.64
2018-09-30T07:02:12.287Z,34.55
2018-09-30T07:03:11.421Z,34.34
2018-09-30T07:04:11.409Z,34.64
2018-09-30T07:05:11.401Z,34.44
2018-09-30T07:06:11.799Z,34.55
2018-09-30T07:07:12.283Z,34.44
2018-09-30T07:08:11.367Z,34.55
2018-09-30T07:09:11.356Z,34.44
2018-09-30T07:10:12.288Z,33.65
2018-09-30T07:11:11.801Z,33.86
2018-09-30T07:12:12.283Z,33.95
2018-09-30T07:13:11.320Z,33.84
2018-09-30T07:14:11.304Z,33.65
2018-09-30T07:15:11.292Z,33.84
2018-09-30T07:16:11.301Z,33.95
2018-09-30T07:17:11.269Z,33.84
2018-09-30T07:18:11.259Z,33.65
2018-09-30T07:19:11.246Z,34.05
2018-09-30T07:20:11.239Z,34.14
2018-09-30T07:21:11.247Z,34.14
2018-09-30T07:22:11.816Z,33.54
2018-09-30T07:23:11.206Z,34.14
2018-09-30T07:24:11.193Z,34.25
2018-09-30T07:25:11.185Z,34.05
2018-09-30T07:26:11.198Z,33.84
2018-09-30T07:27:11.159Z,34.14
2018-09-30T07:28:11.151Z,34.14
2018-09-30T07:29:11.786Z,33.84
2018-09-30T07:30:11.787Z,33.65
2018-09-30T07:31:11.796Z,33.84
2018-09-30T07:32:11.108Z,33.84
2018-09-30T07:33:11.098Z,33.84
2018-09-30T07:34:11.798Z,34.05
2018-09-30T07:35:11.081Z,33.95
2018-09-30T07:36:11.311Z,34.14
2018-09-30T07:37:11.056Z,34.14
2018-09-30T07:38:11.043Z,33.75
2018-09-30T07:39:11.788Z,33.75
2018-09-30T07:40:11.786Z,34.14
2018-09-30T07:41:11.301Z,34.13
2018-09-30T07:42:11.000Z,33.75
2018-09-30T07:43:11.791Z,33.75
2018-09-30T07:44:10.977Z,34.14
2018-09-30T07:45:11.850Z,34.23
2018-09-30T07:46:11.305Z,33.93
2018-09-30T07:47:11.790Z,34.13
2018-09-30T07:48:10.935Z,34.13
2018-09-30T07:49:10.928Z,34.05
2018-09-30T07:50:10.915Z,34.23
2018-09-30T07:51:11.308Z,34.23
2018-09-30T07:52:10.897Z,34.03
2018-09-30T07:53:10.881Z,33.93
2018-09-30T07:54:10.871Z,33.93
2018-09-30T07:55:10.857Z,34.13
2018-09-30T07:56:11.028Z,33.73
2018-09-30T07:57:11.788Z,33.93
2018-09-30T07:58:10.831Z,33.63
2018-09-30T07:59:10.823Z,33.63
2018-09-30T08:00:10.819Z,33.83
2018-09-30T08:01:11.321Z,33.93
2018-09-30T08:02:11.288Z,34.03
2018-09-30T08:03:10.797Z,33.83
2018-09-30T08:04:11.294Z,33.83
2018-09-30T08:05:10.751Z,33.93
2018-09-30T08:06:10.763Z,34.03
2018-09-30T08:07:10.733Z,33.93
2018-09-30T08:08:11.291Z,34.03
2018-09-30T08:09:10.711Z,33.83
2018-09-30T08:10:10.695Z,34.23
2018-09-30T08:11:10.713Z,33.83
2018-09-30T08:12:10.675Z,33.83
2018-09-30T08:13:11.286Z,33.81
2018-09-30T08:14:11.294Z,33.72
2018-09-30T08:15:10.677Z,33.91
2018-09-30T08:16:11.307Z,34.01
2018-09-30T08:17:10.621Z,33.72
2018-09-30T08:18:10.638Z,34.03
2018-09-30T08:19:10.603Z,33.91
2018-09-30T08:20:10.603Z,33.83
2018-09-30T08:21:10.627Z,33.91
2018-09-30T08:22:10.570Z,34.13
2018-09-30T08:23:10.559Z,34.11
2018-09-30T08:24:10.594Z,33.81
2018-09-30T08:25:10.542Z,33.91
2018-09-30T08:26:10.561Z,34.01
2018-09-30T08:27:10.518Z,33.91
2018-09-30T08:28:10.507Z,33.72
2018-09-30T08:29:10.493Z,33.91
2018-09-30T08:30:10.484Z,33.91
2018-09-30T08:31:10.526Z,33.72
2018-09-30T08:32:10.808Z,33.22
2018-09-30T08:33:10.472Z,34.01
2018-09-30T08:34:10.443Z,33.42
2018-09-30T08:35:10.427Z,33.61
2018-09-30T08:36:10.419Z,33.51
2018-09-30T08:37:10.583Z,33.72
2018-09-30T08:38:10.400Z,33.31
2018-09-30T08:39:10.393Z,33.51
2018-09-30T08:40:10.376Z,33.31
2018-09-30T08:41:10.366Z,33.42
2018-09-30T08:42:10.806Z,33.42
2018-09-30T08:43:11.290Z,33.31
2018-09-30T08:44:11.323Z,33.31
2018-09-30T08:45:10.320Z,33.22
2018-09-30T08:46:10.314Z,33.30
2018-09-30T08:47:10.337Z,33.20
2018-09-30T08:48:10.293Z,33.30
2018-09-30T08:49:10.850Z,33.30
2018-09-30T08:50:10.270Z,33.30
2018-09-30T08:51:10.256Z,33.20
2018-09-30T08:52:10.285Z,33.30
2018-09-30T08:53:10.236Z,33.40
2018-09-30T08:54:10.238Z,33.20
2018-09-30T08:55:10.217Z,33.40
2018-09-30T08:56:10.878Z,33.10
2018-09-30T08:57:10.475Z,33.50
2018-09-30T08:58:10.791Z,33.30
2018-09-30T08:59:10.170Z,33.60
2018-09-30T09:00:10.171Z,33.10
2018-09-30T09:01:10.159Z,33.80
2018-09-30T09:02:10.304Z,33.80
2018-09-30T09:03:10.920Z,33.80
2018-09-30T09:04:10.117Z,33.70
2018-09-30T09:05:10.105Z,33.60
2018-09-30T09:06:10.113Z,33.70
2018-09-30T09:07:10.110Z,33.70
2018-09-30T09:08:10.792Z,33.70
2018-09-30T09:09:10.789Z,33.60
2018-09-30T09:10:10.792Z,33.70
2018-09-30T09:11:10.789Z,33.70
2018-09-30T09:12:10.304Z,34.00
2018-09-30T09:13:10.019Z,33.50
2018-09-30T09:14:10.011Z,33.70
2018-09-30T09:15:09.997Z,33.68
2018-09-30T09:16:10.801Z,33.98
2018-09-30T09:17:10.005Z,33.98
2018-09-30T09:18:09.965Z,33.58
2018-09-30T09:19:10.792Z,33.28
2018-09-30T09:20:10.794Z,33.58
2018-09-30T09:21:09.933Z,33.58
2018-09-30T09:22:10.064Z,33.38
2018-09-30T09:23:09.916Z,33.48
2018-09-30T09:24:10.791Z,33.28
2018-09-30T09:25:09.901Z,33.68
2018-09-30T09:26:09.881Z,33.58
2018-09-30T09:27:09.885Z,33.58
2018-09-30T09:28:10.801Z,33.38
2018-09-30T09:29:09.848Z,34.08
2018-09-30T09:30:09.851Z,33.48
2018-09-30T09:31:10.792Z,33.58
2018-09-30T09:32:09.851Z,33.58
2018-09-30T09:33:10.856Z,33.88
2018-09-30T09:34:10.301Z,33.48
2018-09-30T09:35:09.869Z,33.58
2018-09-30T09:36:10.295Z,33.56
2018-09-30T09:37:09.784Z,33.98
2018-09-30T09:38:09.750Z,33.38
2018-09-30T09:39:10.292Z,32.87
2018-09-30T09:40:10.297Z,33.26
2018-09-30T09:41:10.294Z,33.67
2018-09-30T09:42:09.875Z,33.76
2018-09-30T09:43:09.702Z,32.87
2018-09-30T09:44:09.693Z,32.87
2018-09-30T09:45:10.307Z,32.67
2018-09-30T09:46:09.663Z,32.87
2018-09-30T09:47:09.758Z,32.97
2018-09-30T09:48:09.644Z,33.56
2018-09-30T09:49:09.630Z,32.87
2018-09-30T09:50:09.630Z,32.87
2018-09-30T09:51:09.611Z,32.87
2018-09-30T09:52:09.808Z,32.97
2018-09-30T09:53:09.593Z,32.77
2018-09-30T09:54:10.292Z,32.67
2018-09-30T09:55:09.570Z,32.87
2018-09-30T09:56:09.557Z,32.87
2018-09-30T09:57:09.573Z,32.75
2018-09-30T09:58:10.292Z,32.97
2018-09-30T09:59:10.420Z,33.65
2018-09-30T10:00:10.293Z,33.67
2018-09-30T10:01:09.510Z,32.97
2018-09-30T10:02:09.788Z,32.86
2018-09-30T10:03:10.296Z,33.15
2018-09-30T10:04:09.483Z,33.05
2018-09-30T10:05:09.533Z,32.86
2018-09-30T10:06:09.457Z,32.97
2018-09-30T10:07:09.459Z,32.95
2018-09-30T10:08:09.470Z,33.15
2018-09-30T10:09:10.302Z,32.95
2018-09-30T10:10:10.304Z,32.86
2018-09-30T10:11:09.402Z,33.25
2018-09-30T10:12:09.403Z,32.86
2018-09-30T10:13:10.389Z,33.15
2018-09-30T10:14:10.294Z,32.75
2018-09-30T10:15:09.387Z,33.15
2018-09-30T10:16:10.297Z,32.75
2018-09-30T10:17:09.457Z,32.75
2018-09-30T10:18:09.318Z,32.95
2018-09-30T10:19:10.295Z,33.35
2018-09-30T10:20:09.314Z,32.95
2018-09-30T10:21:09.799Z,32.93
2018-09-30T10:22:09.304Z,33.25
2018-09-30T10:23:09.269Z,32.86
2018-09-30T10:24:09.795Z,32.65
2018-09-30T10:25:09.288Z,32.75
2018-09-30T10:26:09.795Z,33.25
2018-09-30T10:27:09.308Z,32.84
2018-09-30T10:28:09.212Z,32.74
2018-09-30T10:29:09.795Z,32.93
2018-09-30T10:30:09.795Z,32.93
2018-09-30T10:31:09.182Z,32.93
2018-09-30T10:32:09.173Z,33.35
2018-09-30T10:33:09.310Z,32.93
2018-09-30T10:34:09.791Z,32.95
2018-09-30T10:35:09.138Z,33.83
2018-09-30T10:36:09.812Z,33.14
2018-09-30T10:37:09.116Z,32.93
2018-09-30T10:38:09.331Z,32.84
2018-09-30T10:39:09.929Z,33.83
2018-09-30T10:40:09.095Z,32.84
2018-09-30T10:41:09.096Z,33.83
2018-09-30T10:42:09.064Z,33.73
2018-09-30T10:43:09.066Z,33.83
2018-09-30T10:44:09.794Z,33.53
2018-09-30T10:45:09.794Z,33.44
2018-09-30T10:46:09.026Z,33.04
2018-09-30T10:47:09.012Z,33.23
2018-09-30T10:48:09.016Z,32.64
2018-09-30T10:49:09.804Z,33.23
2018-09-30T10:50:08.992Z,32.93
2018-09-30T10:51:08.983Z,33.23
2018-09-30T10:52:08.956Z,33.23
2018-09-30T10:53:08.964Z,33.23
2018-09-30T10:54:08.935Z,33.14
2018-09-30T10:55:08.949Z,32.54
2018-09-30T10:56:08.915Z,33.53
2018-09-30T10:57:08.906Z,32.74
2018-09-30T10:58:08.924Z,33.53
2018-09-30T10:59:08.881Z,32.74
2018-09-30T11:00:08.872Z,32.72
2018-09-30T11:01:08.859Z,32.54
2018-09-30T11:02:09.808Z,33.44
2018-09-30T11:03:08.886Z,32.62
2018-09-30T11:04:08.830Z,32.54
2018-09-30T11:05:08.816Z,32.53
2018-09-30T11:06:09.876Z,32.53
2018-09-30T11:07:09.297Z,32.54
2018-09-30T11:08:08.810Z,32.53
2018-09-30T11:09:09.297Z,32.53
2018-09-30T11:10:09.381Z,32.62
2018-09-30T11:11:09.318Z,33.22
2018-09-30T11:12:08.747Z,33.32
2018-09-30T11:13:08.751Z,32.53
2018-09-30T11:14:08.718Z,33.12
2018-09-30T11:15:09.300Z,32.62
2018-09-30T11:16:08.712Z,32.72
2018-09-30T11:17:09.303Z,32.82
2018-09-30T11:18:08.706Z,33.22
2018-09-30T11:19:08.663Z,32.62
2018-09-30T11:20:08.670Z,32.42
2018-09-30T11:21:08.646Z,33.02
2018-09-30T11:22:08.633Z,33.12
2018-09-30T11:23:08.652Z,32.92
2018-09-30T11:24:08.613Z,32.92
2018-09-30T11:25:09.299Z,32.62
2018-09-30T11:26:08.670Z,33.02
2018-09-30T11:27:08.581Z,33.22
2018-09-30T11:28:08.588Z,32.62
2018-09-30T11:29:08.561Z,32.92
2018-09-30T11:30:08.549Z,33.02
2018-09-30T11:31:09.304Z,33.02
2018-09-30T11:32:08.527Z,33.12
2018-09-30T11:33:08.552Z,32.82
2018-09-30T11:34:08.505Z,33.22
2018-09-30T11:35:08.495Z,33.02
2018-09-30T11:36:08.488Z,33.02
2018-09-30T11:37:08.487Z,32.62
2018-09-30T11:38:08.502Z,32.72
2018-09-30T11:39:09.295Z,32.92
2018-09-30T11:40:08.442Z,33.12
2018-09-30T11:41:08.432Z,33.22
2018-09-30T11:42:09.316Z,32.92
2018-09-30T11:43:08.810Z,32.60
2018-09-30T11:44:08.407Z,32.60
2018-09-30T11:45:09.297Z,32.60
2018-09-30T11:46:08.391Z,33.11
2018-09-30T11:47:09.297Z,33.22
2018-09-30T11:48:08.427Z,32.62
2018-09-30T11:49:08.366Z,32.81
2018-09-30T11:50:08.334Z,33.11
2018-09-30T11:51:08.322Z,33.00
2018-09-30T11:52:08.338Z,32.51
2018-09-30T11:53:08.317Z,33.00
2018-09-30T11:54:08.298Z,33.00
2018-09-30T11:55:08.280Z,33.11
2018-09-30T11:56:08.270Z,33.00
2018-09-30T11:57:08.823Z,32.90
2018-09-30T11:58:08.311Z,32.60
2018-09-30T11:59:08.799Z,33.11
2018-09-30T12:00:08.236Z,33.00
2018-09-30T12:01:08.276Z,32.90
2018-09-30T12:02:08.296Z,33.11
2018-09-30T12:03:08.218Z,33.11
2018-09-30T12:04:08.183Z,32.90
2018-09-30T12:05:08.183Z,33.11
2018-09-30T12:06:08.168Z,33.11
2018-09-30T12:07:08.187Z,32.90
2018-09-30T12:08:08.315Z,32.90
2018-09-30T12:09:08.130Z,32.90
2018-09-30T12:10:08.117Z,33.11
2018-09-30T12:11:08.816Z,33.00
2018-09-30T12:12:08.109Z,33.40
2018-09-30T12:13:08.109Z,32.90
2018-09-30T12:14:08.080Z,32.79
2018-09-30T12:15:08.066Z,33.30
2018-09-30T12:16:08.799Z,32.81
2018-09-30T12:17:08.817Z,32.79
2018-09-30T12:18:08.315Z,32.79
2018-09-30T12:19:08.024Z,32.90
2018-09-30T12:20:08.012Z,32.89
2018-09-30T12:21:08.003Z,33.30
2018-09-30T12:22:08.808Z,33.18
2018-09-30T12:23:08.151Z,32.60
2018-09-30T12:24:07.972Z,33.29
2018-09-30T12:25:08.799Z,32.59
2018-09-30T12:26:07.947Z,33.29
2018-09-30T12:27:07.941Z,33.09
2018-09-30T12:28:08.314Z,32.99
2018-09-30T12:29:07.915Z,31.99
2018-09-30T12:30:07.906Z,33.48
2018-09-30T12:31:07.895Z,33.48
2018-09-30T12:32:08.801Z,33.48
2018-09-30T12:33:07.922Z,33.48
2018-09-30T12:34:07.864Z,33.18
2018-09-30T12:35:07.854Z,32.79
2018-09-30T12:36:07.843Z,33.18
2018-09-30T12:37:08.800Z,32.20
2018-09-30T12:38:07.828Z,33.48
2018-09-30T12:39:08.358Z,33.48
2018-09-30T12:40:08.300Z,33.48
2018-09-30T12:41:07.791Z,33.09
2018-09-30T12:42:07.777Z,32.59
2018-09-30T12:43:07.792Z,33.48
2018-09-30T12:44:08.310Z,33.09
2018-09-30T12:45:08.302Z,32.59
2018-09-30T12:46:07.743Z,33.18
2018-09-30T12:47:08.303Z,33.18
2018-09-30T12:48:07.721Z,33.29
2018-09-30T12:49:08.313Z,33.09
2018-09-30T12:50:07.694Z,33.09
2018-09-30T12:51:08.299Z,33.09
2018-09-30T12:52:08.301Z,33.18